Damme, Belgium
Current Conditions -  °F | °C
As of 9:55 PM on Friday 19 Dec 2014 (Local Time) from EHFS Reporting Station
Clear Clear  
Wind Chill: 40°   Ceiling: Unl
Heat Index: 48°   Visibility: 6mi
Dew Point: 37°   Wind: 24mph
Humidity: 66%   Direction: 270°W
Pressure: 30.09"   Gusts: NA
Location:  51.25°N, 3.28°E
Report Text: EHFS 192055Z AUTO 27021KT 9999 NSC 09/03 Q1019
Loading
Personal Weather Stations






























Interactive Weather Map New forecast layout! Learn more

10-Day Weather Forecast

Advertisements
Track Severe Weather on mobile